Time;durP1;ratioP1;P1;durP2;ratioP2;P2;SDS_P1;SDS_P2;PMS_P1;PMS_P2;Temp;Humidity;BMP_temperature;BMP_pressure;BME280_temperature;BME280_humidity;BME280_pressure;Samples;Min_cycle;Max_cycle;Signal;HPM_P1;HPM_P2
2022/06/25 00:01:45;;;;;;;6.63;4.80;;;;;;;24.77;52.05;94791.88;5040973;28;20067;-54
2022/06/25 00:05:27;;;;;;;7.85;4.82;;;;;;;24.76;52.30;94787.72;5040297;28;20029;-54
2022/06/25 00:06:55;;;;;;;7.75;5.00;;;;;;;24.68;52.46;94781.38;5042770;28;20506;-54
2022/06/25 00:09:21;;;;;;;5.63;4.45;;;;;;;24.68;52.49;94770.44;5032375;28;20032;-54
2022/06/25 00:14:30;;;;;;;7.30;5.00;;;;;;;24.64;52.20;94759.13;5042211;28;20479;-55
2022/06/25 00:16:56;;;;;;;5.95;5.10;;;;;;;24.62;52.57;94761.63;5039048;28;20116;-54
2022/06/25 00:19:23;;;;;;;6.95;4.88;;;;;;;24.63;52.50;94752.19;5041330;28;20040;-54
2022/06/25 00:21:49;;;;;;;7.95;4.93;;;;;;;24.59;52.31;94744.31;5024778;28;20044;-55
2022/06/25 00:24:16;;;;;;;8.02;4.32;;;;;;;24.64;52.09;94748.19;5039356;28;20397;-54
2022/06/25 00:26:42;;;;;;;5.97;4.95;;;;;;;24.62;52.49;94764.34;5034530;28;20032;-54
2022/06/25 00:29:09;;;;;;;9.75;5.43;;;;;;;24.54;52.71;94760.78;5041497;28;20028;-54
2022/06/25 00:31:34;;;;;;;6.63;4.40;;;;;;;24.58;52.06;94755.75;5029591;28;20045;-54
2022/06/25 00:34:00;;;;;;;9.25;4.70;;;;;;;24.58;52.32;94763.94;5042623;28;20029;-55
2022/06/25 00:36:25;;;;;;;6.25;4.68;;;;;;;24.54;52.50;94763.50;5039762;28;20613;-54
2022/06/25 00:38:51;;;;;;;6.20;4.30;;;;;;;24.49;52.41;94758.88;5040088;28;20012;-53
2022/06/25 00:41:16;;;;;;;5.75;4.38;;;;;;;24.50;52.14;94754.91;5040921;28;20087;-53
2022/06/25 00:43:42;;;;;;;5.35;4.30;;;;;;;24.47;52.07;94755.97;5039804;28;20028;-54
2022/06/25 00:46:07;;;;;;;8.65;4.30;;;;;;;24.46;52.36;94743.56;5033547;28;20029;-53
2022/06/25 00:48:33;;;;;;;6.20;4.63;;;;;;;24.44;51.96;94751.53;5029280;28;20183;-54
2022/06/25 00:50:58;;;;;;;8.50;4.80;;;;;;;24.42;52.01;94738.41;5039937;28;20490;-54
2022/06/25 00:53:26;;;;;;;5.97;4.10;;;;;;;24.41;51.89;94741.66;5041065;28;20081;-54
2022/06/25 00:55:52;;;;;;;7.13;4.63;;;;;;;24.43;51.91;94747.31;5007430;28;20037;-53
2022/06/25 00:58:17;;;;;;;6.65;4.38;;;;;;;24.45;51.93;94753.00;5022305;28;20071;-54
2022/06/25 01:00:43;;;;;;;5.90;4.50;;;;;;;24.38;52.13;94753.63;5009014;28;20029;-54
2022/06/25 01:03:08;;;;;;;8.82;4.80;;;;;;;24.40;52.09;94757.28;5040594;28;20037;-54
2022/06/25 01:05:33;;;;;;;5.25;4.30;;;;;;;24.37;51.91;94746.69;5038945;28;20032;-53
2022/06/25 01:07:59;;;;;;;7.07;4.30;;;;;;;24.34;52.37;94745.00;5039361;28;20040;-53
2022/06/25 01:10:24;;;;;;;6.03;4.25;;;;;;;24.35;51.78;94751.94;5042192;28;20549;-53
2022/06/25 01:12:50;;;;;;;6.93;4.43;;;;;;;24.35;51.86;94754.66;5016749;28;20029;-54
2022/06/25 01:15:17;;;;;;;5.22;4.30;;;;;;;24.35;51.89;94749.22;5041233;28;20471;-54
2022/06/25 01:17:50;;;;;;;5.57;4.18;;;;;;;24.32;51.86;94752.94;5018521;28;20040;-53
2022/06/25 01:20:17;;;;;;;7.82;4.53;;;;;;;24.30;52.20;94763.63;5035009;28;20059;-53
2022/06/25 01:22:42;;;;;;;5.78;4.28;;;;;;;24.28;51.75;94749.06;5040024;28;20021;-54
2022/06/25 01:25:09;;;;;;;5.05;4.00;;;;;;;24.29;51.88;94751.28;5040495;28;20028;-54
2022/06/25 01:27:35;;;;;;;9.85;4.90;;;;;;;24.29;52.17;94751.28;5038212;28;20158;-54
2022/06/25 01:30:00;;;;;;;8.15;4.75;;;;;;;24.27;51.67;94753.75;5016507;28;20051;-53
2022/06/25 01:32:25;;;;;;;6.35;4.18;;;;;;;24.25;52.01;94750.09;5038371;28;20555;-54
2022/06/25 01:34:51;;;;;;;9.15;4.20;;;;;;;24.23;52.19;94745.16;5040424;28;20028;-53
2022/06/25 01:37:16;;;;;;;5.40;4.03;;;;;;;24.27;52.25;94753.75;5037509;28;20036;-54
2022/06/25 01:39:42;;;;;;;6.55;4.60;;;;;;;24.26;52.51;94752.31;5038913;28;20021;-55
2022/06/25 01:42:58;;;;;;;6.63;4.32;;;;;;;24.23;52.18;94750.63;5028655;28;20472;-53
2022/06/25 01:44:53;;;;;;;6.70;4.65;;;;;;;24.25;52.83;94755.56;5023125;28;20064;-54
2022/06/25 01:47:18;;;;;;;5.55;3.83;;;;;;;24.26;52.45;94741.41;5028558;28;20028;-54
2022/06/25 01:49:44;;;;;;;5.90;3.90;;;;;;;24.26;52.41;94746.84;5041864;28;20043;-55
2022/06/25 01:52:09;;;;;;;4.60;3.80;;;;;;;24.24;52.43;94757.53;5041359;28;20029;-54
2022/06/25 01:54:34;;;;;;;6.32;4.50;;;;;;;24.27;53.02;94753.03;5010776;28;20424;-54
2022/06/25 01:57:00;;;;;;;7.35;4.50;;;;;;;24.24;52.65;94754.81;5044657;28;20420;-54
2022/06/25 01:59:25;;;;;;;7.55;4.60;;;;;;;24.26;52.47;94768.69;5044699;28;20021;-54
2022/06/25 02:01:51;;;;;;;7.38;4.40;;;;;;;24.23;52.87;94767.00;5041701;28;20024;-53
2022/06/25 02:04:16;;;;;;;6.13;4.80;;;;;;;24.22;52.91;94762.78;5041608;28;20055;-54
2022/06/25 02:06:42;;;;;;;5.97;4.00;;;;;;;24.24;52.75;94776.63;5044185;28;20040;-54
2022/06/25 02:09:07;;;;;;;6.30;4.30;;;;;;;24.25;52.68;94780.84;5035484;28;20504;-53
2022/06/25 02:11:33;;;;;;;7.40;4.60;;;;;;;24.21;52.80;94788.59;5042357;28;20530;-54
2022/06/25 02:13:58;;;;;;;5.03;4.50;;;;;;;24.23;52.59;94786.09;5034111;28;20036;-54
2022/06/25 02:16:23;;;;;;;5.50;4.45;;;;;;;24.25;52.82;94775.38;5040386;28;20495;-54
2022/06/25 02:18:49;;;;;;;6.22;4.20;;;;;;;24.28;52.34;94782.53;5043948;28;20029;-53
2022/06/25 02:21:14;;;;;;;6.70;4.50;;;;;;;24.24;52.83;94771.19;5043437;28;20090;-53
2022/06/25 02:23:40;;;;;;;7.03;4.15;;;;;;;24.27;52.50;94769.41;5039805;28;20033;-54
2022/06/25 02:26:05;;;;;;;7.13;4.35;;;;;;;24.19;52.52;94768.56;5025101;28;20078;-54
2022/06/25 02:28:31;;;;;;;6.50;4.35;;;;;;;24.27;52.10;94770.13;5043332;28;20491;-54
2022/06/25 02:30:56;;;;;;;4.57;4.03;;;;;;;24.25;52.03;94772.66;5030669;28;20107;-56
2022/06/25 02:33:22;;;;;;;5.55;4.30;;;;;;;24.24;51.93;94776.63;5043042;28;20028;-53
2022/06/25 02:35:47;;;;;;;10.68;5.35;;;;;;;24.26;51.82;94774.13;5046409;28;20014;-54
2022/06/25 02:38:13;;;;;;;5.85;4.07;;;;;;;24.22;52.21;94784.63;5038879;28;20021;-54
2022/06/25 02:40:38;;;;;;;5.07;3.58;;;;;;;24.20;52.15;94798.03;5040149;28;20651;-54
2022/06/25 02:43:05;;;;;;;5.68;3.80;;;;;;;24.22;52.20;94806.44;5029525;28;20036;-54
2022/06/25 02:45:30;;;;;;;5.45;3.75;;;;;;;24.25;51.54;94799.22;5041747;28;20936;-54
2022/06/25 02:47:56;;;;;;;8.02;4.50;;;;;;;24.22;52.30;94795.53;5033239;28;20031;-54
2022/06/25 02:50:23;;;;;;;5.05;3.80;;;;;;;24.22;51.88;94790.06;5043517;28;20020;-53
2022/06/25 02:52:48;;;;;;;4.30;3.58;;;;;;;24.17;51.88;94782.72;5043005;28;20116;-54
2022/06/25 02:55:13;;;;;;;4.65;3.70;;;;;;;24.19;51.91;94780.19;5037082;28;20128;-55
2022/06/25 03:00:23;;;;;;;4.65;3.90;;;;;;;24.18;52.04;94784.16;5045723;28;20036;-54
2022/06/25 03:02:49;;;;;;;6.07;3.67;;;;;;;24.21;52.07;94788.59;5038127;28;20037;-54
2022/06/25 03:05:14;;;;;;;8.63;4.10;;;;;;;24.21;52.12;94774.94;5035107;28;20479;-53
2022/06/25 03:07:40;;;;;;;5.00;3.80;;;;;;;24.19;51.76;94769.28;5040490;28;20017;-53
2022/06/25 03:10:06;;;;;;;5.78;3.50;;;;;;;24.19;51.84;94785.66;5038314;28;20033;-53
2022/06/25 03:12:31;;;;;;;6.25;3.65;;;;;;;24.19;51.91;94791.09;5039047;28;20459;-54
2022/06/25 03:14:57;;;;;;;6.07;3.92;;;;;;;24.23;52.09;94791.56;5035167;28;20037;-53
2022/06/25 03:17:22;;;;;;;4.65;3.50;;;;;;;24.26;52.39;94790.50;5043062;28;20033;-53
2022/06/25 03:19:47;;;;;;;6.00;3.78;;;;;;;24.21;52.34;94777.66;5043365;28;20032;-54
2022/06/25 03:22:13;;;;;;;4.07;3.55;;;;;;;24.26;52.17;94795.97;5041888;28;20775;-54
2022/06/25 03:24:38;;;;;;;5.05;3.60;;;;;;;24.21;52.19;94794.03;5038677;28;20037;-54
2022/06/25 03:27:04;;;;;;;6.78;3.72;;;;;;;24.23;52.11;94786.09;5040916;28;20037;-54
2022/06/25 03:29:30;;;;;;;6.13;3.40;;;;;;;24.21;52.60;94790.59;5042088;28;20021;-55
2022/06/25 03:31:56;;;;;;;4.65;3.70;;;;;;;24.21;52.06;94788.59;5040918;28;20044;-54
2022/06/25 03:34:21;;;;;;;8.38;3.72;;;;;;;24.18;52.68;94792.34;5039080;28;20746;-54
2022/06/25 03:36:47;;;;;;;6.40;4.05;;;;;;;24.20;52.19;94784.41;5041316;28;20044;-53
2022/06/25 03:39:12;;;;;;;4.57;3.70;;;;;;;24.22;52.21;94779.16;5031311;28;20103;-54
2022/06/25 03:41:38;;;;;;;9.35;4.18;;;;;;;24.20;52.27;94773.50;5028977;28;20029;-54
2022/06/25 03:44:08;;;;;;;5.35;4.13;;;;;;;24.21;52.60;94787.84;5028309;28;20080;-54
2022/06/25 03:46:34;;;;;;;6.50;4.13;;;;;;;24.22;52.79;94779.16;5026764;28;20149;-54
2022/06/25 03:49:00;;;;;;;6.40;4.00;;;;;;;24.20;52.60;94781.69;5027812;28;20067;-53
2022/06/25 03:51:26;;;;;;;5.13;3.88;;;;;;;24.15;52.84;94768.84;5028655;28;20510;-53
2022/06/25 03:53:51;;;;;;;7.13;4.57;;;;;;;24.17;52.96;94777.25;5031627;28;20494;-54
2022/06/25 03:56:16;;;;;;;6.20;4.30;;;;;;;24.19;52.45;94785.66;5026971;28;20497;-54
2022/06/25 03:58:42;;;;;;;5.35;4.05;;;;;;;24.21;52.75;94774.94;5006886;28;20028;-54
2022/06/25 04:01:07;;;;;;;5.45;4.30;;;;;;;24.17;53.16;94769.06;5025338;28;20419;-54
2022/06/25 04:03:33;;;;;;;7.70;4.90;;;;;;;24.21;53.07;94766.75;5024365;28;20827;-54
2022/06/25 04:06:02;;;;;;;7.57;4.70;;;;;;;24.21;52.59;94764.03;5024365;28;20041;-53
2022/06/25 04:08:27;;;;;;;6.13;4.20;;;;;;;24.19;52.71;94768.56;5026030;28;20527;-53
2022/06/25 04:10:53;;;;;;;6.28;4.40;;;;;;;24.19;53.01;94780.19;5022774;28;20037;-54
2022/06/25 04:13:18;;;;;;;6.05;4.70;;;;;;;24.22;52.85;94790.06;5039796;28;20037;-53
2022/06/25 04:15:44;;;;;;;6.13;4.20;;;;;;;24.19;53.14;94790.38;5029283;28;20037;-53
2022/06/25 04:18:09;;;;;;;6.03;4.55;;;;;;;24.22;53.57;94795.53;5014920;28;20057;-54
2022/06/25 04:20:35;;;;;;;7.20;4.13;;;;;;;24.24;52.94;94787.56;5041809;28;20068;-53
2022/06/25 04:23:01;;;;;;;5.57;4.47;;;;;;;24.25;53.47;94786.31;5039005;28;20056;-54
2022/06/25 04:25:26;;;;;;;6.20;4.20;;;;;;;24.27;53.50;94786.50;5040389;28;20071;-59
2022/06/25 04:30:36;;;;;;;7.25;4.72;;;;;;;24.29;53.20;94794.94;5028590;28;20098;-58
2022/06/25 04:33:01;;;;;;;5.75;4.32;;;;;;;24.33;53.04;94787.19;5038820;28;20503;-54
2022/06/25 04:35:27;;;;;;;7.47;4.60;;;;;;;24.37;53.31;94790.34;5029326;28;20028;-56
2022/06/25 04:37:52;;;;;;;5.90;4.40;;;;;;;24.46;53.44;94787.22;5028023;28;20048;-57
2022/06/25 04:40:18;;;;;;;6.63;4.10;;;;;;;24.47;53.33;94788.72;5027367;28;20075;-58
2022/06/25 04:42:45;;;;;;;7.78;4.53;;;;;;;24.57;53.03;94793.25;5022965;28;20044;-56
2022/06/25 04:45:10;;;;;;;7.13;4.75;;;;;;;24.66;52.89;94805.75;5025671;28;20095;-57
2022/06/25 04:47:36;;;;;;;8.23;4.70;;;;;;;24.71;53.00;94808.41;5025474;28;20404;-53
2022/06/25 04:50:01;;;;;;;5.95;4.53;;;;;;;24.82;52.30;94803.47;5026069;28;20025;-54
2022/06/25 04:52:27;;;;;;;7.15;4.57;;;;;;;24.84;52.39;94806.41;5024906;28;20048;-54
2022/06/25 04:54:52;;;;;;;7.18;4.70;;;;;;;24.89;52.42;94802.84;5026130;28;20048;-57
2022/06/25 04:57:17;;;;;;;6.75;4.60;;;;;;;24.97;52.10;94803.69;5025706;28;20021;-57
2022/06/25 04:59:43;;;;;;;5.70;4.68;;;;;;;25.21;51.33;94808.97;5024589;28;20022;-55
2022/06/25 05:02:08;;;;;;;6.18;4.70;;;;;;;25.36;50.93;94800.97;5015999;28;20400;-56
2022/06/25 05:04:34;;;;;;;6.68;4.70;;;;;;;25.49;50.73;94811.91;5028918;28;20056;-55
2022/06/25 05:07:00;;;;;;;6.70;4.95;;;;;;;25.59;50.29;94810.94;5030420;28;20036;-55
2022/06/25 05:09:26;;;;;;;8.27;4.75;;;;;;;25.55;50.37;94818.00;5024960;28;20037;-55
2022/06/25 05:11:51;;;;;;;10.30;4.82;;;;;;;25.50;50.66;94821.56;5024078;28;20141;-54
2022/06/25 05:14:17;;;;;;;6.53;4.80;;;;;;;25.59;50.11;94807.47;5026893;28;20040;-54
2022/06/25 05:16:44;;;;;;;11.23;4.70;;;;;;;25.79;49.89;94805.56;5024595;28;20029;-53
2022/06/25 05:19:10;;;;;;;7.45;4.95;;;;;;;25.85;49.61;94808.91;5010335;28;20065;-55
2022/06/25 05:21:35;;;;;;;7.32;4.90;;;;;;;25.94;49.48;94807.75;5023427;28;20329;-55
2022/06/25 05:24:01;;;;;;;10.18;5.00;;;;;;;26.09;49.03;94805.88;5027991;28;20032;-55
2022/06/25 05:26:27;;;;;;;10.98;4.95;;;;;;;26.10;48.93;94817.56;5026389;28;20033;-57
2022/06/25 05:28:53;;;;;;;6.00;4.68;;;;;;;26.17;48.76;94822.38;5023844;28;20105;-56
2022/06/25 05:31:18;;;;;;;9.13;4.30;;;;;;;26.32;48.31;94823.28;5028261;28;20123;-55
2022/06/25 05:33:44;;;;;;;6.35;4.82;;;;;;;26.31;48.01;94816.38;5031899;28;20033;-55
2022/06/25 05:36:09;;;;;;;8.13;4.82;;;;;;;26.37;48.17;94819.72;5026325;28;20030;-54
2022/06/25 05:38:35;;;;;;;9.93;4.47;;;;;;;26.41;47.92;94815.38;5030871;28;20021;-55
2022/06/25 05:41:00;;;;;;;6.50;4.53;;;;;;;26.49;48.04;94818.19;5035017;28;20470;-54
2022/06/25 05:43:25;;;;;;;7.05;4.75;;;;;;;26.55;47.78;94813.31;5016090;28;20114;-55
2022/06/25 05:45:51;;;;;;;8.18;4.78;;;;;;;26.66;47.26;94819.22;5030321;28;20476;-55
2022/06/25 05:48:16;;;;;;;6.85;4.35;;;;;;;26.75;47.64;94820.78;5026438;28;20482;-56
2022/06/25 05:50:42;;;;;;;7.88;4.50;;;;;;;26.73;47.32;94828.81;5031679;28;20087;-56
2022/06/25 05:53:07;;;;;;;8.18;4.60;;;;;;;27.00;47.05;94831.59;5031384;28;20036;-56
2022/06/25 05:55:34;;;;;;;7.25;4.13;;;;;;;26.91;47.17;94840.31;5038216;28;20046;-59
2022/06/25 05:58:00;;;;;;;6.40;4.20;;;;;;;26.98;46.66;94827.91;5026053;28;20037;-57
2022/06/25 06:00:26;;;;;;;5.55;3.85;;;;;;;26.91;47.31;94834.81;5043884;28;20040;-56
2022/06/25 06:02:51;;;;;;;6.63;4.50;;;;;;;27.14;46.90;94824.00;5013197;28;20369;-57
2022/06/25 06:05:17;;;;;;;6.65;4.50;;;;;;;27.27;46.67;94830.13;5038722;28;20041;-55
2022/06/25 06:07:42;;;;;;;8.60;4.30;;;;;;;27.24;46.70;94822.25;5036640;28;20091;-56
2022/06/25 06:10:08;;;;;;;6.82;4.60;;;;;;;27.36;46.51;94818.69;5032086;28;20052;-54
2022/06/25 06:12:33;;;;;;;5.78;4.60;;;;;;;27.34;46.23;94815.75;5030641;28;20071;-58
2022/06/25 06:14:59;;;;;;;6.68;4.85;;;;;;;27.48;45.99;94825.31;5033976;28;20074;-54
2022/06/25 06:17:24;;;;;;;7.38;4.75;;;;;;;27.47;45.93;94819.13;5035441;28;20025;-54
2022/06/25 06:19:50;;;;;;;4.82;3.97;;;;;;;27.35;46.34;94828.16;5043237;28;20040;-56
2022/06/25 06:22:15;;;;;;;7.03;4.90;;;;;;;27.50;45.97;94828.28;5043698;28;20075;-55
2022/06/25 06:24:40;;;;;;;6.57;4.30;;;;;;;27.54;45.97;94828.69;5044482;28;20830;-53
2022/06/25 06:27:06;;;;;;;7.00;5.35;;;;;;;27.67;46.32;94821.06;5043395;28;20029;-54
2022/06/25 06:29:31;;;;;;;31.73;12.25;;;;;;;27.78;46.01;94815.25;5041027;28;20082;-53
2022/06/25 06:31:57;;;;;;;13.40;7.47;;;;;;;27.68;46.48;94816.31;5040142;28;20526;-54
2022/06/25 06:34:22;;;;;;;12.15;6.05;;;;;;;27.65;46.36;94818.09;5043336;28;20028;-52
2022/06/25 06:36:48;;;;;;;14.30;5.97;;;;;;;27.90;45.92;94817.13;5031644;28;20514;-53
2022/06/25 06:39:13;;;;;;;14.00;6.30;;;;;;;27.96;45.96;94825.91;5030297;28;20120;-53
2022/06/25 06:41:39;;;;;;;21.73;6.60;;;;;;;27.98;45.81;94812.41;5034310;28;20029;-53
2022/06/25 06:44:04;;;;;;;12.23;6.05;;;;;;;28.12;45.84;94810.28;5031074;28;20021;-53
2022/06/25 06:46:30;;;;;;;12.95;5.93;;;;;;;27.96;46.21;94814.22;5017022;28;20071;-54
2022/06/25 06:48:55;;;;;;;7.57;5.18;;;;;;;27.68;46.16;94814.28;5041051;28;20029;-53
2022/06/25 06:51:21;;;;;;;7.18;4.72;;;;;;;27.53;46.27;94821.72;5042062;28;20021;-54
2022/06/25 06:53:46;;;;;;;8.13;4.80;;;;;;;27.60;46.14;94819.00;5043676;28;20032;-53
2022/06/25 06:56:11;;;;;;;7.55;4.35;;;;;;;27.60;45.56;94821.75;5030102;28;20043;-54
2022/06/25 06:58:37;;;;;;;9.52;4.07;;;;;;;28.08;44.68;94821.56;5034672;28;20464;-53
2022/06/25 07:01:03;;;;;;;7.93;4.50;;;;;;;28.15;44.35;94820.91;5014206;28;20105;-54
2022/06/25 07:03:28;;;;;;;7.07;4.03;;;;;;;28.11;43.78;94815.00;5039477;28;20035;-54
2022/06/25 07:05:54;;;;;;;6.72;3.80;;;;;;;28.37;43.13;94820.19;5036586;28;20107;-54
2022/06/25 07:08:19;;;;;;;5.60;4.05;;;;;;;28.34;43.84;94821.28;5040250;28;20403;-54
2022/06/25 07:10:45;;;;;;;6.18;3.65;;;;;;;28.20;44.09;94822.72;5043765;28;20017;-59
2022/06/25 07:13:10;;;;;;;5.70;3.88;;;;;;;28.20;44.40;94814.50;5026047;28;20037;-54
2022/06/25 07:15:36;;;;;;;8.55;4.13;;;;;;;28.31;43.90;94811.41;5041279;28;20033;-54
2022/06/25 07:18:01;;;;;;;7.40;4.10;;;;;;;28.48;43.65;94806.84;5042763;28;20021;-54
2022/06/25 07:20:27;;;;;;;5.25;3.78;;;;;;;28.44;43.86;94808.50;5043182;28;20028;-54
2022/06/25 07:22:52;;;;;;;6.25;3.97;;;;;;;28.52;44.15;94815.47;5038102;28;20456;-54
2022/06/25 07:25:18;;;;;;;7.22;3.78;;;;;;;28.64;43.67;94804.84;5041203;28;20017;-54
2022/06/25 07:27:44;;;;;;;7.45;4.22;;;;;;;28.74;43.60;94804.53;5040683;28;20727;-54
2022/06/25 07:30:10;;;;;;;5.10;3.97;;;;;;;28.74;43.60;94803.78;5042397;28;20032;-54
2022/06/25 07:32:36;;;;;;;7.68;3.55;;;;;;;28.70;43.23;94802.69;5042418;28;20052;-54
2022/06/25 07:35:01;;;;;;;6.30;3.97;;;;;;;28.76;42.82;94812.94;5042115;28;20404;-55
2022/06/25 07:37:28;;;;;;;8.13;4.13;;;;;;;28.78;43.38;94809.66;5042027;28;20031;-58
2022/06/25 07:39:53;;;;;;;10.02;4.50;;;;;;;28.89;42.83;94815.53;5042983;28;20012;-55
2022/06/25 07:42:19;;;;;;;5.22;3.80;;;;;;;28.75;42.65;94816.97;5043586;28;20519;-54
2022/06/25 07:44:44;;;;;;;5.95;4.20;;;;;;;28.80;42.65;94824.31;5043107;28;20044;-54
2022/06/25 07:47:10;;;;;;;5.78;4.20;;;;;;;28.79;42.54;94817.34;5038798;28;20496;-54
2022/06/25 07:51:56;;;;;;;6.97;4.10;;;;;;;28.88;42.82;94825.06;5040877;28;20098;-54
2022/06/25 07:52:21;;;;;;;6.88;4.60;;;;;;;28.90;42.45;94816.97;5043658;28;20033;-52
2022/06/25 07:54:46;;;;;;;9.73;4.85;;;;;;;28.96;42.17;94812.03;5021750;28;20041;-54
2022/06/25 07:57:11;;;;;;;11.05;4.47;;;;;;;29.15;42.10;94815.13;5038712;28;20021;-55
2022/06/25 07:59:37;;;;;;;11.27;4.32;;;;;;;29.05;41.98;94814.22;5042970;28;20029;-55
2022/06/25 08:02:03;;;;;;;6.47;4.18;;;;;;;29.14;42.15;94813.66;5042237;28;20025;-55
2022/06/25 08:04:28;;;;;;;7.53;4.50;;;;;;;29.19;42.54;94815.47;5044216;28;20071;-56
2022/06/25 08:06:56;;;;;;;11.77;4.78;;;;;;;29.27;42.69;94810.75;5039608;28;20024;-55
2022/06/25 08:09:21;;;;;;;8.43;4.72;;;;;;;29.29;42.59;94814.38;5042846;28;21024;-52
2022/06/25 08:11:47;;;;;;;8.75;4.63;;;;;;;29.37;42.63;94817.13;5042996;28;20029;-52
2022/06/25 08:14:12;;;;;;;8.23;4.60;;;;;;;29.34;41.98;94812.72;5039973;28;20602;-56
2022/06/25 08:16:38;;;;;;;11.25;4.82;;;;;;;29.46;42.72;94816.56;5040560;28;20028;-53
2022/06/25 08:19:03;;;;;;;6.60;4.30;;;;;;;29.47;42.59;94807.75;5009261;28;20089;-56
2022/06/25 08:21:29;;;;;;;8.60;5.00;;;;;;;29.53;42.03;94805.53;5028366;28;20080;-55
2022/06/25 08:23:54;;;;;;;7.05;4.18;;;;;;;29.55;41.95;94807.72;5028416;28;20400;-55
2022/06/25 08:26:20;;;;;;;8.48;4.50;;;;;;;29.52;41.99;94808.84;5023663;28;20039;-53
2022/06/25 08:28:46;;;;;;;6.80;4.05;;;;;;;29.65;41.67;94811.38;5035062;28;20029;-54
2022/06/25 08:31:11;;;;;;;5.68;4.30;;;;;;;29.64;42.28;94804.41;5027730;28;20125;-53
2022/06/25 08:33:37;;;;;;;8.57;5.00;;;;;;;29.59;41.54;94808.09;5040676;28;20389;-53
2022/06/25 08:36:02;;;;;;;6.25;4.55;;;;;;;29.68;41.56;94799.97;5040751;28;20021;-53
2022/06/25 08:38:28;;;;;;;8.60;4.78;;;;;;;29.80;41.03;94798.31;5021982;28;20028;-53
2022/06/25 08:40:57;;;;;;;7.97;4.28;;;;;;;29.77;41.45;94808.38;5041108;28;20538;-56
2022/06/25 08:43:24;;;;;;;6.78;4.57;;;;;;;29.78;41.03;94804.34;5039807;28;20079;-52
2022/06/25 08:45:49;;;;;;;9.55;4.53;;;;;;;29.84;41.18;94813.16;5033687;28;20044;-53
2022/06/25 08:48:16;;;;;;;5.75;4.55;;;;;;;29.82;41.16;94809.50;5041358;28;20360;-53
2022/06/25 08:50:42;;;;;;;7.65;4.90;;;;;;;29.83;41.40;94817.19;5041124;28;20052;-53
2022/06/25 08:53:08;;;;;;;8.02;4.55;;;;;;;29.90;41.30;94821.22;5037808;28;20047;-53
2022/06/25 08:55:38;;;;;;;7.68;4.63;;;;;;;29.89;40.91;94820.47;5023325;28;20029;-53
2022/06/25 08:58:05;;;;;;;8.40;4.32;;;;;;;29.98;41.58;94817.13;5040214;28;20028;-53
2022/06/25 09:00:31;;;;;;;7.50;4.60;;;;;;;29.95;41.52;94812.75;5026705;28;20037;-54
2022/06/25 09:02:57;;;;;;;7.65;4.78;;;;;;;29.97;41.27;94804.66;5026590;28;20512;-55
2022/06/25 09:05:29;;;;;;;6.60;5.13;;;;;;;30.03;41.37;94813.47;5040287;28;20048;-55
2022/06/25 09:07:55;;;;;;;7.90;4.43;;;;;;;30.06;41.41;94820.59;5038260;28;20036;-55
2022/06/25 09:10:22;;;;;;;8.07;4.80;;;;;;;30.09;41.09;94822.25;5034119;28;20440;-54
2022/06/25 09:12:51;;;;;;;8.13;5.72;;;;;;;30.09;41.18;94816.72;5035497;28;20090;-53
2022/06/25 09:15:18;;;;;;;6.97;4.65;;;;;;;30.11;41.52;94825.16;5029175;28;20052;-54
2022/06/25 09:17:48;;;;;;;10.63;4.93;;;;;;;30.17;41.16;94822.94;5037731;28;20037;-52
2022/06/25 09:20:14;;;;;;;10.85;6.00;;;;;;;30.15;41.19;94814.50;5007159;28;20021;-53
2022/06/25 09:22:39;;;;;;;8.68;5.13;;;;;;;30.19;41.14;94814.81;5025000;28;20033;-52
2022/06/25 09:25:05;;;;;;;7.95;5.32;;;;;;;30.19;40.77;94821.09;5012496;28;20638;-53
2022/06/25 09:27:36;;;;;;;9.95;5.30;;;;;;;30.24;40.88;94822.16;5025294;28;20017;-53
2022/06/25 09:30:11;;;;;;;9.95;5.40;;;;;;;30.34;40.79;94814.78;5012335;28;20029;-53
2022/06/25 09:32:44;;;;;;;9.27;5.15;;;;;;;30.28;40.98;94819.75;5040968;28;20049;-53
2022/06/25 09:35:10;;;;;;;6.80;5.00;;;;;;;30.30;41.35;94819.94;5010397;28;20037;-53
2022/06/25 09:37:36;;;;;;;10.95;6.20;;;;;;;30.41;40.96;94814.00;5007605;28;20040;-53
2022/06/25 09:40:01;;;;;;;9.07;5.28;;;;;;;30.66;40.84;94818.97;5026209;28;20126;-53
2022/06/25 09:42:32;;;;;;;7.70;5.03;;;;;;;30.55;40.87;94821.44;4994389;28;20091;-54
2022/06/25 09:45:15;;;;;;;9.73;5.68;;;;;;;30.55;40.86;94812.44;5024052;28;20121;-53
2022/06/25 09:47:45;;;;;;;11.63;5.07;;;;;;;30.52;40.85;94808.03;5024370;28;20035;-53
2022/06/25 09:50:13;;;;;;;;;;;;;;;30.41;41.28;94795.44;5027100;28;20559;-53
2022/06/25 09:52:55;;;;;;;9.00;5.32;;;;;;;30.51;40.90;94798.31;5022298;28;20052;-56
2022/06/25 09:55:24;;;;;;;7.40;5.47;;;;;;;30.57;40.70;94793.31;5015307;28;20082;-54
2022/06/25 09:57:51;;;;;;;9.48;5.55;;;;;;;30.59;41.06;94801.75;5034819;28;20025;-56
2022/06/25 10:00:18;;;;;;;11.02;6.10;;;;;;;30.60;41.38;94803.19;5039091;28;20124;-54
2022/06/25 10:02:48;;;;;;;9.18;6.05;;;;;;;30.47;41.32;94789.72;5039580;28;20633;-53
2022/06/25 10:05:16;;;;;;;10.35;5.97;;;;;;;30.65;40.97;94799.50;5040384;28;20028;-52
2022/06/25 10:08:00;;;;;;;11.23;6.10;;;;;;;30.66;40.67;94807.22;5039372;28;20372;-57
2022/06/25 10:10:26;;;;;;;8.80;5.70;;;;;;;30.65;41.13;94805.75;5009177;28;20174;-54
2022/06/25 10:12:51;;;;;;;8.50;5.50;;;;;;;30.56;40.81;94792.56;4985527;28;20183;-52
2022/06/25 10:15:18;;;;;;;9.48;6.05;;;;;;;30.62;40.74;94795.13;5023105;28;20021;-52
2022/06/25 10:17:47;;;;;;;13.15;5.57;;;;;;;30.59;40.65;94807.28;5023449;28;20025;-54
2022/06/25 10:20:16;;;;;;;10.80;5.75;;;;;;;30.66;40.35;94793.44;5001744;28;20057;-54
2022/06/25 10:22:42;;;;;;;11.13;6.13;;;;;;;30.62;40.03;94792.38;5033689;28;20048;-54
2022/06/25 10:25:13;;;;;;;10.02;5.82;;;;;;;30.74;40.01;94791.34;5015193;28;20517;-54
2022/06/25 10:27:42;;;;;;;14.23;5.72;;;;;;;30.65;39.99;94784.41;5025921;28;20025;-55
2022/06/25 10:30:09;;;;;;;11.90;5.57;;;;;;;30.80;39.74;94776.03;5041698;28;20124;-56
2022/06/25 10:32:47;;;;;;;12.30;5.10;;;;;;;30.87;39.66;94772.50;5035352;28;20045;-56
2022/06/25 10:35:42;;;;;;;10.20;6.13;;;;;;;30.89;39.75;94772.66;5038173;28;20051;-53
2022/06/25 10:38:09;;;;;;;14.00;5.50;;;;;;;30.84;40.22;94773.59;5035680;28;20067;-54
2022/06/25 10:40:55;;;;;;;11.10;5.68;;;;;;;30.78;40.14;94775.13;5026230;28;20051;-54
2022/06/25 10:43:40;;;;;;;10.07;5.80;;;;;;;30.70;40.53;94758.66;5032521;28;20033;-56
2022/06/25 10:46:31;;;;;;;10.38;5.75;;;;;;;30.54;40.64;94761.34;5037292;28;20041;-53
2022/06/25 10:49:10;;;;;;;14.40;5.80;;;;;;;30.61;40.52;94760.56;5044783;28;20041;-54
2022/06/25 10:51:38;;;;;;;9.77;5.25;;;;;;;30.52;40.67;94763.94;5043146;28;20029;-51
2022/06/25 10:54:05;;;;;;;9.43;4.93;;;;;;;30.51;40.67;94762.47;5034344;28;20115;-52
2022/06/25 10:56:44;;;;;;;6.82;4.93;;;;;;;30.38;41.01;94754.50;5043963;28;20108;-51
2022/06/25 10:59:10;;;;;;;7.82;4.90;;;;;;;30.23;41.03;94760.06;5044009;28;20029;-53
2022/06/25 11:01:35;;;;;;;7.95;5.18;;;;;;;30.30;41.30;94759.31;5044910;28;20412;-54
2022/06/25 11:04:03;;;;;;;10.27;5.20;;;;;;;30.16;41.51;94749.81;5045086;28;20021;-53
2022/06/25 11:06:34;;;;;;;10.50;5.15;;;;;;;30.14;41.17;94746.91;5042540;28;20025;-53
2022/06/25 11:09:05;;;;;;;9.90;4.55;;;;;;;30.09;41.41;94755.38;5005988;28;20036;-54
2022/06/25 11:11:31;;;;;;;9.80;5.55;;;;;;;30.09;41.66;94750.63;5030048;28;20060;-51
2022/06/25 11:13:57;;;;;;;8.45;4.90;;;;;;;29.98;42.05;94740.00;5044079;28;20087;-50
2022/06/25 11:16:23;;;;;;;9.70;4.57;;;;;;;29.99;41.97;94735.25;5042658;28;20614;-50
2022/06/25 11:18:50;;;;;;;9.38;5.18;;;;;;;29.88;41.88;94736.41;5026146;28;20363;-52
2022/06/25 11:21:41;;;;;;;8.35;5.07;;;;;;;29.83;42.08;94733.88;5042711;28;20056;-51
2022/06/25 11:24:22;;;;;;;8.93;5.38;;;;;;;29.80;42.19;94729.47;5043753;28;20021;-51
2022/06/25 11:29:39;;;;;;;11.38;4.82;;;;;;;29.67;42.16;94723.44;5042773;28;20123;-51
2022/06/25 11:32:05;;;;;;;10.38;4.72;;;;;;;29.58;42.46;94713.78;5024322;28;20099;-51
2022/06/25 11:34:31;;;;;;;10.63;5.40;;;;;;;29.57;42.99;94706.09;5043143;28;20025;-55
2022/06/25 11:37:23;;;;;;;8.13;4.95;;;;;;;29.51;42.96;94708.31;5043206;28;20025;-50
2022/06/25 11:39:49;;;;;;;9.25;4.93;;;;;;;29.40;43.24;94697.69;5040963;28;20041;-51
2022/06/25 11:42:14;;;;;;;7.32;5.00;;;;;;;29.44;43.19;94700.81;5041072;28;20021;-50